sensor_id;sensor_type;location;lat;lon;timestamp;P1;durP1;ratioP1;P2;durP2;ratioP2
41685;SDS011;27370;42.764;23.432;2022-12-29T00:01:33;15.57;;;8.85;;
41685;SDS011;27370;42.764;23.432;2022-12-29T00:04:00;15.52;;;10.27;;
41685;SDS011;27370;42.764;23.432;2022-12-29T00:06:26;15.95;;;9.95;;
41685;SDS011;27370;42.764;23.432;2022-12-29T00:08:52;18.35;;;10.45;;
41685;SDS011;27370;42.764;23.432;2022-12-29T00:11:19;16.35;;;10.50;;
41685;SDS011;27370;42.764;23.432;2022-12-29T00:13:47;16.13;;;9.55;;
41685;SDS011;27370;42.764;23.432;2022-12-29T00:16:32;16.10;;;9.93;;
41685;SDS011;27370;42.764;23.432;2022-12-29T00:18:59;16.33;;;10.63;;
41685;SDS011;27370;42.764;23.432;2022-12-29T00:21:25;17.30;;;10.63;;
41685;SDS011;27370;42.764;23.432;2022-12-29T00:24:12;16.27;;;10.55;;
41685;SDS011;27370;42.764;23.432;2022-12-29T00:29:40;16.23;;;10.15;;
41685;SDS011;27370;42.764;23.432;2022-12-29T00:32:24;15.38;;;9.55;;
41685;SDS011;27370;42.764;23.432;2022-12-29T00:35:09;14.95;;;9.35;;
41685;SDS011;27370;42.764;23.432;2022-12-29T00:37:38;16.77;;;10.02;;
41685;SDS011;27370;42.764;23.432;2022-12-29T00:40:29;16.33;;;10.05;;
41685;SDS011;27370;42.764;23.432;2022-12-29T00:43:13;16.33;;;10.05;;
41685;SDS011;27370;42.764;23.432;2022-12-29T00:45:57;16.70;;;10.13;;
41685;SDS011;27370;42.764;23.432;2022-12-29T00:48:23;18.48;;;11.05;;
41685;SDS011;27370;42.764;23.432;2022-12-29T00:51:07;17.90;;;10.52;;
41685;SDS011;27370;42.764;23.432;2022-12-29T00:53:33;17.65;;;10.15;;
41685;SDS011;27370;42.764;23.432;2022-12-29T00:55:59;18.27;;;10.35;;
41685;SDS011;27370;42.764;23.432;2022-12-29T00:58:28;18.05;;;10.65;;
41685;SDS011;27370;42.764;23.432;2022-12-29T01:01:01;21.58;;;10.73;;
41685;SDS011;27370;42.764;23.432;2022-12-29T01:03:28;19.77;;;11.40;;
41685;SDS011;27370;42.764;23.432;2022-12-29T01:05:53;18.50;;;11.02;;
41685;SDS011;27370;42.764;23.432;2022-12-29T01:08:19;19.45;;;11.50;;
41685;SDS011;27370;42.764;23.432;2022-12-29T01:10:44;19.30;;;11.27;;
41685;SDS011;27370;42.764;23.432;2022-12-29T01:13:10;20.23;;;11.38;;
41685;SDS011;27370;42.764;23.432;2022-12-29T01:15:36;16.60;;;10.15;;
41685;SDS011;27370;42.764;23.432;2022-12-29T01:18:01;17.27;;;10.20;;
41685;SDS011;27370;42.764;23.432;2022-12-29T01:20:26;18.75;;;10.30;;
41685;SDS011;27370;42.764;23.432;2022-12-29T01:22:53;15.63;;;9.52;;
41685;SDS011;27370;42.764;23.432;2022-12-29T01:25:19;17.75;;;9.90;;
41685;SDS011;27370;42.764;23.432;2022-12-29T01:27:45;17.20;;;9.48;;
41685;SDS011;27370;42.764;23.432;2022-12-29T01:30:11;16.08;;;9.40;;
41685;SDS011;27370;42.764;23.432;2022-12-29T01:32:37;18.27;;;9.77;;
41685;SDS011;27370;42.764;23.432;2022-12-29T01:35:02;16.38;;;9.90;;
41685;SDS011;27370;42.764;23.432;2022-12-29T01:37:28;15.90;;;8.95;;
41685;SDS011;27370;42.764;23.432;2022-12-29T01:39:54;14.88;;;9.13;;
41685;SDS011;27370;42.764;23.432;2022-12-29T01:42:22;13.68;;;7.38;;
41685;SDS011;27370;42.764;23.432;2022-12-29T01:44:50;13.40;;;7.43;;
41685;SDS011;27370;42.764;23.432;2022-12-29T01:47:24;13.53;;;7.43;;
41685;SDS011;27370;42.764;23.432;2022-12-29T01:49:54;12.13;;;6.85;;
41685;SDS011;27370;42.764;23.432;2022-12-29T01:52:21;12.23;;;6.80;;
41685;SDS011;27370;42.764;23.432;2022-12-29T01:54:50;12.73;;;7.10;;
41685;SDS011;27370;42.764;23.432;2022-12-29T01:57:21;12.05;;;7.03;;
41685;SDS011;27370;42.764;23.432;2022-12-29T02:00:03;13.30;;;7.25;;
41685;SDS011;27370;42.764;23.432;2022-12-29T02:02:44;13.23;;;8.10;;
41685;SDS011;27370;42.764;23.432;2022-12-29T02:05:18;13.02;;;7.50;;
41685;SDS011;27370;42.764;23.432;2022-12-29T02:08:03;13.10;;;7.70;;
41685;SDS011;27370;42.764;23.432;2022-12-29T02:10:30;12.00;;;7.25;;
41685;SDS011;27370;42.764;23.432;2022-12-29T02:12:57;12.38;;;7.70;;
41685;SDS011;27370;42.764;23.432;2022-12-29T02:15:26;14.48;;;8.20;;
41685;SDS011;27370;42.764;23.432;2022-12-29T02:21:04;13.50;;;8.23;;
41685;SDS011;27370;42.764;23.432;2022-12-29T02:34:48;13.75;;;7.90;;
41685;SDS011;27370;42.764;23.432;2022-12-29T02:40:39;12.93;;;8.80;;
41685;SDS011;27370;42.764;23.432;2022-12-29T02:43:47;16.58;;;9.55;;
41685;SDS011;27370;42.764;23.432;2022-12-29T02:51:44;15.45;;;9.32;;
41685;SDS011;27370;42.764;23.432;2022-12-29T02:54:18;15.18;;;8.80;;
41685;SDS011;27370;42.764;23.432;2022-12-29T02:57:08;15.52;;;9.48;;
41685;SDS011;27370;42.764;23.432;2022-12-29T02:59:47;15.52;;;9.40;;
41685;SDS011;27370;42.764;23.432;2022-12-29T03:08:28;18.90;;;11.57;;
41685;SDS011;27370;42.764;23.432;2022-12-29T03:11:00;17.15;;;11.05;;
41685;SDS011;27370;42.764;23.432;2022-12-29T03:13:39;18.83;;;12.40;;
41685;SDS011;27370;42.764;23.432;2022-12-29T03:21:52;18.20;;;10.68;;
41685;SDS011;27370;42.764;23.432;2022-12-29T03:24:44;17.00;;;10.63;;
41685;SDS011;27370;42.764;23.432;2022-12-29T03:27:19;18.00;;;11.43;;
41685;SDS011;27370;42.764;23.432;2022-12-29T03:29:49;16.27;;;10.93;;
41685;SDS011;27370;42.764;23.432;2022-12-29T03:32:20;18.17;;;11.77;;
41685;SDS011;27370;42.764;23.432;2022-12-29T03:34:48;18.75;;;12.85;;
41685;SDS011;27370;42.764;23.432;2022-12-29T03:37:17;19.55;;;12.82;;
41685;SDS011;27370;42.764;23.432;2022-12-29T03:39:45;17.17;;;12.05;;
41685;SDS011;27370;42.764;23.432;2022-12-29T03:42:16;20.35;;;13.13;;
41685;SDS011;27370;42.764;23.432;2022-12-29T03:44:45;20.27;;;13.30;;
41685;SDS011;27370;42.764;23.432;2022-12-29T03:47:13;19.85;;;13.05;;
41685;SDS011;27370;42.764;23.432;2022-12-29T03:49:39;22.25;;;13.90;;
41685;SDS011;27370;42.764;23.432;2022-12-29T03:52:06;20.60;;;13.52;;
41685;SDS011;27370;42.764;23.432;2022-12-29T03:54:36;20.60;;;14.32;;
41685;SDS011;27370;42.764;23.432;2022-12-29T03:57:01;19.80;;;14.45;;
41685;SDS011;27370;42.764;23.432;2022-12-29T03:59:37;20.92;;;14.50;;
41685;SDS011;27370;42.764;23.432;2022-12-29T04:02:03;25.17;;;16.15;;
41685;SDS011;27370;42.764;23.432;2022-12-29T04:04:28;24.30;;;17.17;;
41685;SDS011;27370;42.764;23.432;2022-12-29T04:06:54;25.85;;;16.65;;
41685;SDS011;27370;42.764;23.432;2022-12-29T04:09:20;24.15;;;16.85;;
41685;SDS011;27370;42.764;23.432;2022-12-29T04:11:47;26.77;;;17.58;;
41685;SDS011;27370;42.764;23.432;2022-12-29T04:14:13;26.35;;;16.77;;
41685;SDS011;27370;42.764;23.432;2022-12-29T04:16:39;24.92;;;17.17;;
41685;SDS011;27370;42.764;23.432;2022-12-29T04:19:05;27.58;;;18.73;;
41685;SDS011;27370;42.764;23.432;2022-12-29T04:21:32;28.92;;;19.20;;
41685;SDS011;27370;42.764;23.432;2022-12-29T04:23:58;26.48;;;18.15;;
41685;SDS011;27370;42.764;23.432;2022-12-29T04:26:23;28.42;;;18.13;;
41685;SDS011;27370;42.764;23.432;2022-12-29T04:29:01;26.02;;;17.58;;
41685;SDS011;27370;42.764;23.432;2022-12-29T04:31:38;26.63;;;17.70;;
41685;SDS011;27370;42.764;23.432;2022-12-29T04:34:04;25.75;;;17.15;;
41685;SDS011;27370;42.764;23.432;2022-12-29T04:36:31;28.60;;;19.40;;
41685;SDS011;27370;42.764;23.432;2022-12-29T04:38:56;29.33;;;19.33;;
41685;SDS011;27370;42.764;23.432;2022-12-29T04:41:22;28.33;;;19.13;;
41685;SDS011;27370;42.764;23.432;2022-12-29T04:43:49;30.02;;;18.23;;
41685;SDS011;27370;42.764;23.432;2022-12-29T04:46:32;29.33;;;18.90;;
41685;SDS011;27370;42.764;23.432;2022-12-29T04:49:00;30.50;;;20.70;;
41685;SDS011;27370;42.764;23.432;2022-12-29T04:51:41;32.00;;;21.48;;
41685;SDS011;27370;42.764;23.432;2022-12-29T04:54:08;31.63;;;20.20;;
41685;SDS011;27370;42.764;23.432;2022-12-29T04:56:34;34.60;;;20.77;;
41685;SDS011;27370;42.764;23.432;2022-12-29T04:59:00;33.55;;;19.58;;
41685;SDS011;27370;42.764;23.432;2022-12-29T05:01:26;30.15;;;17.92;;
41685;SDS011;27370;42.764;23.432;2022-12-29T05:03:52;22.55;;;14.93;;
41685;SDS011;27370;42.764;23.432;2022-12-29T05:06:17;24.95;;;16.75;;
41685;SDS011;27370;42.764;23.432;2022-12-29T05:08:43;26.05;;;16.20;;
41685;SDS011;27370;42.764;23.432;2022-12-29T05:11:09;23.80;;;15.85;;
41685;SDS011;27370;42.764;23.432;2022-12-29T05:13:35;25.35;;;15.90;;
41685;SDS011;27370;42.764;23.432;2022-12-29T05:16:01;24.67;;;16.33;;
41685;SDS011;27370;42.764;23.432;2022-12-29T05:18:27;22.02;;;15.50;;
41685;SDS011;27370;42.764;23.432;2022-12-29T05:20:52;23.88;;;15.80;;
41685;SDS011;27370;42.764;23.432;2022-12-29T05:23:19;24.13;;;16.33;;
41685;SDS011;27370;42.764;23.432;2022-12-29T05:25:51;23.23;;;15.82;;
41685;SDS011;27370;42.764;23.432;2022-12-29T05:28:20;25.23;;;15.80;;
41685;SDS011;27370;42.764;23.432;2022-12-29T05:30:55;22.85;;;15.60;;
41685;SDS011;27370;42.764;23.432;2022-12-29T05:33:20;23.75;;;16.13;;
41685;SDS011;27370;42.764;23.432;2022-12-29T05:35:48;23.65;;;16.48;;
41685;SDS011;27370;42.764;23.432;2022-12-29T05:38:13;25.35;;;16.58;;
41685;SDS011;27370;42.764;23.432;2022-12-29T05:40:39;25.17;;;17.13;;
41685;SDS011;27370;42.764;23.432;2022-12-29T05:43:14;25.05;;;17.25;;
41685;SDS011;27370;42.764;23.432;2022-12-29T05:46:00;25.20;;;16.42;;
41685;SDS011;27370;42.764;23.432;2022-12-29T05:48:57;23.92;;;16.85;;
41685;SDS011;27370;42.764;23.432;2022-12-29T05:55:07;21.75;;;14.73;;
41685;SDS011;27370;42.764;23.432;2022-12-29T05:57:34;22.77;;;15.35;;
41685;SDS011;27370;42.764;23.432;2022-12-29T06:00:08;23.35;;;14.98;;
41685;SDS011;27370;42.764;23.432;2022-12-29T06:02:39;21.42;;;15.38;;
41685;SDS011;27370;42.764;23.432;2022-12-29T06:05:06;23.30;;;15.93;;
41685;SDS011;27370;42.764;23.432;2022-12-29T06:07:33;24.42;;;16.73;;
41685;SDS011;27370;42.764;23.432;2022-12-29T06:09:58;23.20;;;15.07;;
41685;SDS011;27370;42.764;23.432;2022-12-29T06:12:24;21.23;;;15.32;;
41685;SDS011;27370;42.764;23.432;2022-12-29T06:14:52;22.63;;;15.75;;
41685;SDS011;27370;42.764;23.432;2022-12-29T06:17:17;19.92;;;13.23;;
41685;SDS011;27370;42.764;23.432;2022-12-29T06:19:43;20.75;;;14.30;;
41685;SDS011;27370;42.764;23.432;2022-12-29T06:22:09;22.02;;;14.77;;
41685;SDS011;27370;42.764;23.432;2022-12-29T06:24:39;20.42;;;14.05;;
41685;SDS011;27370;42.764;23.432;2022-12-29T06:27:05;22.60;;;13.75;;
41685;SDS011;27370;42.764;23.432;2022-12-29T06:29:30;19.45;;;13.23;;
41685;SDS011;27370;42.764;23.432;2022-12-29T06:31:56;20.83;;;13.63;;
41685;SDS011;27370;42.764;23.432;2022-12-29T06:34:23;20.40;;;13.88;;
41685;SDS011;27370;42.764;23.432;2022-12-29T06:36:49;19.15;;;13.25;;
41685;SDS011;27370;42.764;23.432;2022-12-29T06:39:15;22.17;;;14.85;;
41685;SDS011;27370;42.764;23.432;2022-12-29T06:41:47;25.10;;;16.08;;
41685;SDS011;27370;42.764;23.432;2022-12-29T06:44:31;23.75;;;16.17;;
41685;SDS011;27370;42.764;23.432;2022-12-29T06:47:00;25.20;;;17.08;;
41685;SDS011;27370;42.764;23.432;2022-12-29T06:49:25;23.10;;;16.73;;
41685;SDS011;27370;42.764;23.432;2022-12-29T06:51:51;31.30;;;17.63;;
41685;SDS011;27370;42.764;23.432;2022-12-29T06:54:16;24.75;;;17.50;;
41685;SDS011;27370;42.764;23.432;2022-12-29T06:56:42;27.42;;;18.80;;
41685;SDS011;27370;42.764;23.432;2022-12-29T06:59:08;27.25;;;18.17;;
41685;SDS011;27370;42.764;23.432;2022-12-29T07:01:35;27.20;;;17.92;;
41685;SDS011;27370;42.764;23.432;2022-12-29T07:04:01;28.45;;;17.58;;
41685;SDS011;27370;42.764;23.432;2022-12-29T07:06:27;25.02;;;16.70;;
41685;SDS011;27370;42.764;23.432;2022-12-29T07:08:53;24.33;;;16.63;;
41685;SDS011;27370;42.764;23.432;2022-12-29T07:11:20;21.25;;;14.73;;
41685;SDS011;27370;42.764;23.432;2022-12-29T07:13:46;33.58;;;21.73;;
41685;SDS011;27370;42.764;23.432;2022-12-29T07:16:12;24.23;;;15.35;;
41685;SDS011;27370;42.764;23.432;2022-12-29T07:18:37;20.30;;;13.80;;
41685;SDS011;27370;42.764;23.432;2022-12-29T07:21:03;21.02;;;14.15;;
41685;SDS011;27370;42.764;23.432;2022-12-29T07:23:29;21.13;;;13.50;;
41685;SDS011;27370;42.764;23.432;2022-12-29T07:26:07;19.58;;;13.43;;
41685;SDS011;27370;42.764;23.432;2022-12-29T07:28:36;20.88;;;13.57;;
41685;SDS011;27370;42.764;23.432;2022-12-29T07:31:03;20.75;;;13.15;;
41685;SDS011;27370;42.764;23.432;2022-12-29T07:33:29;20.92;;;12.57;;
41685;SDS011;27370;42.764;23.432;2022-12-29T07:35:55;21.27;;;13.38;;
41685;SDS011;27370;42.764;23.432;2022-12-29T07:38:21;23.42;;;14.18;;
41685;SDS011;27370;42.764;23.432;2022-12-29T07:40:46;30.80;;;19.00;;
41685;SDS011;27370;42.764;23.432;2022-12-29T07:43:12;20.42;;;13.73;;
41685;SDS011;27370;42.764;23.432;2022-12-29T07:45:43;21.50;;;14.10;;
41685;SDS011;27370;42.764;23.432;2022-12-29T07:48:09;29.48;;;16.52;;
41685;SDS011;27370;42.764;23.432;2022-12-29T07:50:37;21.85;;;15.30;;
41685;SDS011;27370;42.764;23.432;2022-12-29T07:53:03;20.40;;;13.80;;
41685;SDS011;27370;42.764;23.432;2022-12-29T07:55:28;49.63;;;28.77;;
41685;SDS011;27370;42.764;23.432;2022-12-29T07:57:55;25.08;;;15.80;;
41685;SDS011;27370;42.764;23.432;2022-12-29T08:00:21;23.40;;;15.55;;
41685;SDS011;27370;42.764;23.432;2022-12-29T08:02:47;19.85;;;14.18;;
41685;SDS011;27370;42.764;23.432;2022-12-29T08:05:13;26.17;;;17.58;;
41685;SDS011;27370;42.764;23.432;2022-12-29T08:07:38;18.48;;;13.05;;
41685;SDS011;27370;42.764;23.432;2022-12-29T08:10:05;25.33;;;15.85;;
41685;SDS011;27370;42.764;23.432;2022-12-29T08:12:31;20.33;;;12.40;;
41685;SDS011;27370;42.764;23.432;2022-12-29T08:14:56;18.08;;;12.40;;
41685;SDS011;27370;42.764;23.432;2022-12-29T08:17:21;21.90;;;13.90;;
41685;SDS011;27370;42.764;23.432;2022-12-29T08:19:47;21.98;;;14.15;;
41685;SDS011;27370;42.764;23.432;2022-12-29T08:22:13;18.15;;;12.48;;
41685;SDS011;27370;42.764;23.432;2022-12-29T08:24:40;22.27;;;13.68;;
41685;SDS011;27370;42.764;23.432;2022-12-29T08:27:05;31.27;;;19.73;;
41685;SDS011;27370;42.764;23.432;2022-12-29T08:29:31;20.42;;;13.60;;
41685;SDS011;27370;42.764;23.432;2022-12-29T08:31:56;18.33;;;11.45;;
41685;SDS011;27370;42.764;23.432;2022-12-29T08:34:22;17.48;;;11.90;;
41685;SDS011;27370;42.764;23.432;2022-12-29T08:36:48;19.75;;;13.40;;
41685;SDS011;27370;42.764;23.432;2022-12-29T08:39:13;23.05;;;13.70;;
41685;SDS011;27370;42.764;23.432;2022-12-29T08:41:39;20.90;;;12.25;;
41685;SDS011;27370;42.764;23.432;2022-12-29T08:44:05;20.08;;;13.35;;
41685;SDS011;27370;42.764;23.432;2022-12-29T08:46:30;18.17;;;11.65;;
41685;SDS011;27370;42.764;23.432;2022-12-29T08:48:56;26.35;;;16.73;;
41685;SDS011;27370;42.764;23.432;2022-12-29T08:51:22;21.50;;;13.18;;
41685;SDS011;27370;42.764;23.432;2022-12-29T08:53:48;18.95;;;12.95;;
41685;SDS011;27370;42.764;23.432;2022-12-29T08:56:14;24.88;;;15.82;;
41685;SDS011;27370;42.764;23.432;2022-12-29T08:58:47;20.08;;;13.50;;
41685;SDS011;27370;42.764;23.432;2022-12-29T09:01:12;29.40;;;18.52;;
41685;SDS011;27370;42.764;23.432;2022-12-29T09:03:38;19.35;;;12.98;;
41685;SDS011;27370;42.764;23.432;2022-12-29T09:06:03;17.83;;;11.57;;
41685;SDS011;27370;42.764;23.432;2022-12-29T09:08:29;18.30;;;11.18;;
41685;SDS011;27370;42.764;23.432;2022-12-29T09:10:55;19.63;;;12.48;;
41685;SDS011;27370;42.764;23.432;2022-12-29T09:13:20;30.80;;;18.27;;
41685;SDS011;27370;42.764;23.432;2022-12-29T09:15:46;17.95;;;11.63;;
41685;SDS011;27370;42.764;23.432;2022-12-29T09:18:12;16.38;;;11.00;;
41685;SDS011;27370;42.764;23.432;2022-12-29T09:20:37;23.02;;;13.73;;
41685;SDS011;27370;42.764;23.432;2022-12-29T09:23:03;16.88;;;11.27;;
41685;SDS011;27370;42.764;23.432;2022-12-29T09:25:31;15.02;;;10.38;;
41685;SDS011;27370;42.764;23.432;2022-12-29T09:27:56;15.23;;;9.75;;
41685;SDS011;27370;42.764;23.432;2022-12-29T09:30:22;16.05;;;10.43;;
41685;SDS011;27370;42.764;23.432;2022-12-29T09:32:49;16.52;;;11.65;;
41685;SDS011;27370;42.764;23.432;2022-12-29T09:35:15;17.85;;;11.40;;
41685;SDS011;27370;42.764;23.432;2022-12-29T09:37:41;19.55;;;12.23;;
41685;SDS011;27370;42.764;23.432;2022-12-29T09:40:15;17.95;;;11.95;;
41685;SDS011;27370;42.764;23.432;2022-12-29T09:48:36;19.20;;;11.40;;
41685;SDS011;27370;42.764;23.432;2022-12-29T09:51:13;17.08;;;10.98;;
41685;SDS011;27370;42.764;23.432;2022-12-29T09:56:48;21.38;;;12.77;;
41685;SDS011;27370;42.764;23.432;2022-12-29T09:59:15;20.20;;;12.25;;
41685;SDS011;27370;42.764;23.432;2022-12-29T10:01:51;20.05;;;13.32;;
41685;SDS011;27370;42.764;23.432;2022-12-29T10:04:26;23.05;;;12.98;;
41685;SDS011;27370;42.764;23.432;2022-12-29T10:06:54;19.35;;;12.32;;
41685;SDS011;27370;42.764;23.432;2022-12-29T10:09:53;17.73;;;12.48;;
41685;SDS011;27370;42.764;23.432;2022-12-29T10:12:56;18.50;;;12.45;;
41685;SDS011;27370;42.764;23.432;2022-12-29T10:25:31;19.27;;;12.85;;
41685;SDS011;27370;42.764;23.432;2022-12-29T10:28:03;25.70;;;13.95;;
41685;SDS011;27370;42.764;23.432;2022-12-29T10:30:36;18.45;;;13.13;;
41685;SDS011;27370;42.764;23.432;2022-12-29T10:33:07;20.98;;;13.38;;
41685;SDS011;27370;42.764;23.432;2022-12-29T10:35:41;20.70;;;14.15;;
41685;SDS011;27370;42.764;23.432;2022-12-29T10:41:00;18.58;;;12.43;;
41685;SDS011;27370;42.764;23.432;2022-12-29T10:43:33;17.90;;;12.15;;
41685;SDS011;27370;42.764;23.432;2022-12-29T10:46:08;21.25;;;13.40;;
41685;SDS011;27370;42.764;23.432;2022-12-29T10:48:37;21.45;;;12.05;;
41685;SDS011;27370;42.764;23.432;2022-12-29T10:51:04;18.08;;;11.43;;
41685;SDS011;27370;42.764;23.432;2022-12-29T10:53:33;18.60;;;12.68;;
41685;SDS011;27370;42.764;23.432;2022-12-29T10:56:06;17.95;;;11.32;;
41685;SDS011;27370;42.764;23.432;2022-12-29T10:58:41;17.35;;;11.18;;
41685;SDS011;27370;42.764;23.432;2022-12-29T11:01:11;18.55;;;10.93;;
41685;SDS011;27370;42.764;23.432;2022-12-29T11:06:11;20.10;;;11.85;;
41685;SDS011;27370;42.764;23.432;2022-12-29T11:08:55;18.00;;;12.32;;
41685;SDS011;27370;42.764;23.432;2022-12-29T11:11:24;16.75;;;11.40;;
41685;SDS011;27370;42.764;23.432;2022-12-29T11:13:56;18.30;;;11.35;;
41685;SDS011;27370;42.764;23.432;2022-12-29T11:16:39;18.13;;;11.65;;
41685;SDS011;27370;42.764;23.432;2022-12-29T11:19:16;19.35;;;11.95;;
41685;SDS011;27370;42.764;23.432;2022-12-29T11:21:48;18.95;;;12.23;;
41685;SDS011;27370;42.764;23.432;2022-12-29T11:24:21;22.38;;;11.73;;
41685;SDS011;27370;42.764;23.432;2022-12-29T11:26:49;17.98;;;11.57;;
41685;SDS011;27370;42.764;23.432;2022-12-29T11:31:51;16.65;;;10.85;;
41685;SDS011;27370;42.764;23.432;2022-12-29T11:34:27;17.55;;;10.65;;
41685;SDS011;27370;42.764;23.432;2022-12-29T11:37:02;19.67;;;11.48;;
41685;SDS011;27370;42.764;23.432;2022-12-29T11:42:02;16.35;;;10.57;;
41685;SDS011;27370;42.764;23.432;2022-12-29T11:44:31;15.80;;;10.05;;
41685;SDS011;27370;42.764;23.432;2022-12-29T11:47:02;17.05;;;10.13;;
41685;SDS011;27370;42.764;23.432;2022-12-29T11:49:29;17.15;;;10.93;;
41685;SDS011;27370;42.764;23.432;2022-12-29T11:51:54;18.35;;;11.23;;
41685;SDS011;27370;42.764;23.432;2022-12-29T11:56:56;19.25;;;11.23;;
41685;SDS011;27370;42.764;23.432;2022-12-29T12:01:55;17.08;;;11.45;;
41685;SDS011;27370;42.764;23.432;2022-12-29T12:04:23;20.65;;;12.48;;
41685;SDS011;27370;42.764;23.432;2022-12-29T12:07:02;20.50;;;11.88;;
41685;SDS011;27370;42.764;23.432;2022-12-29T12:09:34;18.80;;;11.40;;
41685;SDS011;27370;42.764;23.432;2022-12-29T12:12:18;17.15;;;10.95;;
41685;SDS011;27370;42.764;23.432;2022-12-29T12:14:54;18.75;;;11.82;;
41685;SDS011;27370;42.764;23.432;2022-12-29T12:17:50;16.30;;;11.55;;
41685;SDS011;27370;42.764;23.432;2022-12-29T12:20:27;18.60;;;11.07;;
41685;SDS011;27370;42.764;23.432;2022-12-29T12:25:57;19.02;;;9.98;;
41685;SDS011;27370;42.764;23.432;2022-12-29T12:28:37;16.23;;;9.40;;
41685;SDS011;27370;42.764;23.432;2022-12-29T12:31:18;16.65;;;9.80;;
41685;SDS011;27370;42.764;23.432;2022-12-29T12:33:46;15.30;;;9.85;;
41685;SDS011;27370;42.764;23.432;2022-12-29T13:05:54;17.88;;;11.27;;
41685;SDS011;27370;42.764;23.432;2022-12-29T13:08:06;18.05;;;11.35;;
41685;SDS011;27370;42.764;23.432;2022-12-29T13:10:43;18.00;;;11.45;;
41685;SDS011;27370;42.764;23.432;2022-12-29T13:23:53;19.10;;;12.38;;
41685;SDS011;27370;42.764;23.432;2022-12-29T13:26:22;20.05;;;13.13;;
41685;SDS011;27370;42.764;23.432;2022-12-29T13:31:52;19.42;;;12.77;;
41685;SDS011;27370;42.764;23.432;2022-12-29T13:37:17;19.30;;;12.32;;
41685;SDS011;27370;42.764;23.432;2022-12-29T13:39:52;18.88;;;12.57;;
41685;SDS011;27370;42.764;23.432;2022-12-29T13:42:22;18.95;;;13.07;;
41685;SDS011;27370;42.764;23.432;2022-12-29T13:44:52;20.23;;;14.05;;
41685;SDS011;27370;42.764;23.432;2022-12-29T13:47:42;18.95;;;13.57;;
41685;SDS011;27370;42.764;23.432;2022-12-29T13:50:22;22.15;;;14.18;;
41685;SDS011;27370;42.764;23.432;2022-12-29T13:55:51;40.08;;;16.58;;
41685;SDS011;27370;42.764;23.432;2022-12-29T13:58:38;22.92;;;13.95;;
41685;SDS011;27370;42.764;23.432;2022-12-29T14:03:47;23.30;;;15.50;;
41685;SDS011;27370;42.764;23.432;2022-12-29T14:09:01;21.52;;;14.73;;
41685;SDS011;27370;42.764;23.432;2022-12-29T14:11:36;23.88;;;15.50;;
41685;SDS011;27370;42.764;23.432;2022-12-29T14:14:14;23.73;;;16.20;;
41685;SDS011;27370;42.764;23.432;2022-12-29T14:16:46;24.88;;;16.80;;
41685;SDS011;27370;42.764;23.432;2022-12-29T14:19:15;25.73;;;16.40;;
41685;SDS011;27370;42.764;23.432;2022-12-29T14:34:45;23.13;;;17.02;;
41685;SDS011;27370;42.764;23.432;2022-12-29T14:40:04;24.83;;;17.67;;
41685;SDS011;27370;42.764;23.432;2022-12-29T14:42:39;26.80;;;18.67;;
41685;SDS011;27370;42.764;23.432;2022-12-29T14:47:39;25.63;;;17.80;;
41685;SDS011;27370;42.764;23.432;2022-12-29T14:53:40;27.70;;;19.30;;
41685;SDS011;27370;42.764;23.432;2022-12-29T14:55:32;31.92;;;19.75;;
41685;SDS011;27370;42.764;23.432;2022-12-29T14:58:12;30.45;;;19.80;;
41685;SDS011;27370;42.764;23.432;2022-12-29T15:00:39;30.88;;;20.20;;
41685;SDS011;27370;42.764;23.432;2022-12-29T15:03:07;31.40;;;20.80;;
41685;SDS011;27370;42.764;23.432;2022-12-29T15:05:42;31.25;;;19.75;;
41685;SDS011;27370;42.764;23.432;2022-12-29T15:08:12;31.83;;;20.15;;
41685;SDS011;27370;42.764;23.432;2022-12-29T15:10:58;30.10;;;21.13;;
41685;SDS011;27370;42.764;23.432;2022-12-29T15:13:36;31.70;;;21.35;;
41685;SDS011;27370;42.764;23.432;2022-12-29T15:16:04;30.15;;;20.92;;
41685;SDS011;27370;42.764;23.432;2022-12-29T15:18:30;34.70;;;21.80;;
41685;SDS011;27370;42.764;23.432;2022-12-29T15:20:58;33.28;;;21.77;;
41685;SDS011;27370;42.764;23.432;2022-12-29T15:23:25;33.00;;;23.55;;
41685;SDS011;27370;42.764;23.432;2022-12-29T15:25:58;36.72;;;22.70;;
41685;SDS011;27370;42.764;23.432;2022-12-29T15:28:26;36.78;;;24.02;;
41685;SDS011;27370;42.764;23.432;2022-12-29T15:30:56;33.55;;;23.77;;
41685;SDS011;27370;42.764;23.432;2022-12-29T15:33:27;36.33;;;24.33;;
41685;SDS011;27370;42.764;23.432;2022-12-29T15:35:54;40.47;;;26.42;;
41685;SDS011;27370;42.764;23.432;2022-12-29T15:40:55;40.75;;;28.80;;
41685;SDS011;27370;42.764;23.432;2022-12-29T15:46:18;58.33;;;39.72;;
41685;SDS011;27370;42.764;23.432;2022-12-29T15:48:44;43.10;;;30.23;;
41685;SDS011;27370;42.764;23.432;2022-12-29T15:51:13;48.60;;;30.88;;
41685;SDS011;27370;42.764;23.432;2022-12-29T15:53:42;37.38;;;25.23;;
41685;SDS011;27370;42.764;23.432;2022-12-29T15:56:13;46.13;;;31.38;;
41685;SDS011;27370;42.764;23.432;2022-12-29T15:58:40;43.70;;;29.98;;
41685;SDS011;27370;42.764;23.432;2022-12-29T16:01:31;44.42;;;30.00;;
41685;SDS011;27370;42.764;23.432;2022-12-29T16:04:03;40.53;;;27.67;;
41685;SDS011;27370;42.764;23.432;2022-12-29T16:06:33;39.08;;;27.20;;
41685;SDS011;27370;42.764;23.432;2022-12-29T16:09:01;43.47;;;28.63;;
41685;SDS011;27370;42.764;23.432;2022-12-29T16:11:34;40.80;;;27.67;;
41685;SDS011;27370;42.764;23.432;2022-12-29T16:14:06;43.20;;;29.25;;
41685;SDS011;27370;42.764;23.432;2022-12-29T16:16:36;47.95;;;32.10;;
41685;SDS011;27370;42.764;23.432;2022-12-29T16:21:59;54.35;;;33.60;;
41685;SDS011;27370;42.764;23.432;2022-12-29T16:24:30;74.57;;;51.03;;
41685;SDS011;27370;42.764;23.432;2022-12-29T16:31:55;85.60;;;58.83;;
41685;SDS011;27370;42.764;23.432;2022-12-29T16:34:32;73.22;;;48.70;;
41685;SDS011;27370;42.764;23.432;2022-12-29T16:39:54;49.88;;;34.13;;
41685;SDS011;27370;42.764;23.432;2022-12-29T16:42:36;85.10;;;51.78;;
41685;SDS011;27370;42.764;23.432;2022-12-29T16:47:46;70.78;;;40.75;;
41685;SDS011;27370;42.764;23.432;2022-12-29T16:50:15;94.53;;;48.60;;
41685;SDS011;27370;42.764;23.432;2022-12-29T16:52:49;59.65;;;37.75;;
41685;SDS011;27370;42.764;23.432;2022-12-29T16:55:16;58.75;;;36.05;;
41685;SDS011;27370;42.764;23.432;2022-12-29T16:57:44;55.17;;;36.03;;
41685;SDS011;27370;42.764;23.432;2022-12-29T17:00:18;69.20;;;47.45;;
41685;SDS011;27370;42.764;23.432;2022-12-29T17:02:44;105.85;;;65.07;;
41685;SDS011;27370;42.764;23.432;2022-12-29T17:05:14;100.85;;;64.63;;
41685;SDS011;27370;42.764;23.432;2022-12-29T17:07:41;92.65;;;58.67;;
41685;SDS011;27370;42.764;23.432;2022-12-29T17:10:08;108.18;;;59.70;;
41685;SDS011;27370;42.764;23.432;2022-12-29T17:12:34;83.50;;;51.58;;
41685;SDS011;27370;42.764;23.432;2022-12-29T17:20:36;81.15;;;49.38;;
41685;SDS011;27370;42.764;23.432;2022-12-29T17:22:56;71.18;;;46.88;;
41685;SDS011;27370;42.764;23.432;2022-12-29T17:25:24;67.75;;;45.22;;
41685;SDS011;27370;42.764;23.432;2022-12-29T17:27:55;70.82;;;45.60;;